Share

Agua Branca, Brazil

1:25 PM BRT on April 24, 2014 (GMT -0300)
Paulo Afonso (SBUF) Elev 830 ft | 9.40 °S, 38.22 °W | Change Station

Current weather conditions updated 25 minutes ago

Partly Cloudy
Partly Cloudy
95 °F
Feels Like 98 °F
N
8
Wind Variable Wind from SE
Sunrise 5:34 AM
Sunset 5:24 PM
Moon Waning Crescent

Today is forecast to be nearly the same temperature as yesterday.

Pressure 29.89 in
Visibility 6.2 miles
Clouds Few 2200 ft
Heat Index 98 °F
Dew Point 66 °F
Humidity 39%
Rainfall 0.00 in
Snow Depth Not available.
UV 11 out of 16
Pollen Not available.
Air Quality Not available.
Flu Activity Not available.
METAR SBUF 241600Z 13007KT 9999 FEW022 35/19 Q1012

More Conditions Fewer Conditions

Pressure 29.89 in
Visibility 6.2 miles
Clouds Few 2200 ft
Heat Index 98 °F
Dew Point 66 °F
Humidity 39%
Rainfall 0.00 in
Snow Depth Not available.
UV 11 out of 16
Pollen Not available.
Air Quality Not available.
Flu Activity Not available.
METAR SBUF 241600Z 13007KT 9999 FEW022 35/19 Q1012

More Conditions Fewer Conditions

10-Day Weather Forecast

Almanac

Astronomy

Apr. 24, 2014 Rise Set
Actual Time 5:34 AM BRT 5:24 PM BRT
Civil Twilight 5:13 AM BRT 5:45 PM BRT
Nautical Twilight 4:48 AM BRT 6:10 PM BRT
Astronomical Twilight 4:23 AM BRT 6:35 PM BRT
Moon 1:14 AM BRT 1:48 PM BRT
Length of Visible Light 12h 32m
Length of Day
11h 49m
Tomorrow will be 0m 26s shorter.
Waning Crescent, 24% of the Moon is Illuminated
Today
Waning Crescent
Apr 29
New
May 6
First Quarter
May 14
Full
May 21
Last Quarter

Today's Extremes

Country Highs Country Lows

Community

  • Sunset at Apalachicola Bay, Florida
    Sunset at Apalachicola Bay, Florida
  • Clouds mov'n in
    Clouds mov'n in
  • Stacked
    Stacked
  • clouds approaching Red Sox Nation
    clouds approaching Red Sox Nation
  • Balance
    Balance

WunderPhotos

Upload Photos

1,704,657 photos uploaded!

Nearby

Snow Depth

Not available.

Coastal Water Temperatures

Place Temperature
No Stations Reporting

Earthquake Activity

City Distance Mag. Time & Date
No recent earthquake activity has been reported nearby.
Minimum magnitude displayed is 2.5.

Nearby Weather Stations

There are no personal weather stations in this area.

What do you think?

We're not finished. Please let us know what you like, what you don't like, and what you are still missing.